sensor_id;sensor_type;location;lat;lon;timestamp;temperature;humidity
12957;DHT22;6543;48.836;10.092;2022-12-18T00:00:13;-6.30;99.90
12957;DHT22;6543;48.836;10.092;2022-12-18T00:02:40;-6.90;99.90
12957;DHT22;6543;48.836;10.092;2022-12-18T00:05:08;-7.00;99.90
12957;DHT22;6543;48.836;10.092;2022-12-18T00:07:35;-7.10;99.90
12957;DHT22;6543;48.836;10.092;2022-12-18T00:12:30;-7.20;99.90
12957;DHT22;6543;48.836;10.092;2022-12-18T00:14:56;-7.30;99.90
12957;DHT22;6543;48.836;10.092;2022-12-18T00:17:23;-7.40;99.90
12957;DHT22;6543;48.836;10.092;2022-12-18T00:19:50;-7.30;99.90
12957;DHT22;6543;48.836;10.092;2022-12-18T00:22:18;-7.40;99.90
12957;DHT22;6543;48.836;10.092;2022-12-18T00:24:45;-7.40;99.90
12957;DHT22;6543;48.836;10.092;2022-12-18T00:27:12;-7.40;99.90
12957;DHT22;6543;48.836;10.092;2022-12-18T00:29:42;-7.40;99.90
12957;DHT22;6543;48.836;10.092;2022-12-18T00:32:08;-7.40;99.90
12957;DHT22;6543;48.836;10.092;2022-12-18T00:34:35;-7.30;99.90
12957;DHT22;6543;48.836;10.092;2022-12-18T00:37:02;-7.40;99.90
12957;DHT22;6543;48.836;10.092;2022-12-18T00:39:30;-7.40;99.90
12957;DHT22;6543;48.836;10.092;2022-12-18T00:41:57;-7.40;99.90
12957;DHT22;6543;48.836;10.092;2022-12-18T00:44:42;-7.40;99.90
12957;DHT22;6543;48.836;10.092;2022-12-18T00:47:08;-7.40;99.90
12957;DHT22;6543;48.836;10.092;2022-12-18T00:49:35;-7.40;99.90
12957;DHT22;6543;48.836;10.092;2022-12-18T00:52:02;-7.30;99.90
12957;DHT22;6543;48.836;10.092;2022-12-18T00:54:30;-7.40;99.90
12957;DHT22;6543;48.836;10.092;2022-12-18T00:56:57;-7.40;99.90
12957;DHT22;6543;48.836;10.092;2022-12-18T00:59:24;-7.40;99.90
12957;DHT22;6543;48.836;10.092;2022-12-18T01:01:51;-7.40;99.90
12957;DHT22;6543;48.836;10.092;2022-12-18T01:04:17;-7.40;99.90
12957;DHT22;6543;48.836;10.092;2022-12-18T01:06:44;-7.40;99.90
12957;DHT22;6543;48.836;10.092;2022-12-18T01:09:13;-7.50;99.90
12957;DHT22;6543;48.836;10.092;2022-12-18T01:11:41;-7.40;99.90
12957;DHT22;6543;48.836;10.092;2022-12-18T01:14:08;-7.40;99.90
12957;DHT22;6543;48.836;10.092;2022-12-18T01:16:35;-7.40;99.90
12957;DHT22;6543;48.836;10.092;2022-12-18T01:19:02;-7.40;99.90
12957;DHT22;6543;48.836;10.092;2022-12-18T01:21:29;-7.40;99.90
12957;DHT22;6543;48.836;10.092;2022-12-18T01:23:56;-7.40;99.90
12957;DHT22;6543;48.836;10.092;2022-12-18T01:26:24;-7.40;99.90
12957;DHT22;6543;48.836;10.092;2022-12-18T01:28:53;-7.10;99.90
12957;DHT22;6543;48.836;10.092;2022-12-18T01:31:22;-7.40;99.90
12957;DHT22;6543;48.836;10.092;2022-12-18T01:33:50;-7.40;99.90
12957;DHT22;6543;48.836;10.092;2022-12-18T01:38:46;-7.50;99.90
12957;DHT22;6543;48.836;10.092;2022-12-18T01:41:14;-7.50;99.90
12957;DHT22;6543;48.836;10.092;2022-12-18T01:43:47;-7.50;99.90
12957;DHT22;6543;48.836;10.092;2022-12-18T01:46:17;-7.60;99.90
12957;DHT22;6543;48.836;10.092;2022-12-18T01:48:45;-7.50;99.90
12957;DHT22;6543;48.836;10.092;2022-12-18T01:51:13;-7.50;99.90
12957;DHT22;6543;48.836;10.092;2022-12-18T01:53:42;-7.50;99.90
12957;DHT22;6543;48.836;10.092;2022-12-18T01:56:13;-7.50;99.90
12957;DHT22;6543;48.836;10.092;2022-12-18T01:58:46;-7.50;99.90
12957;DHT22;6543;48.836;10.092;2022-12-18T02:01:17;-7.50;99.90
12957;DHT22;6543;48.836;10.092;2022-12-18T02:03:44;-7.50;99.90
12957;DHT22;6543;48.836;10.092;2022-12-18T02:06:15;-7.50;99.90
12957;DHT22;6543;48.836;10.092;2022-12-18T02:08:50;-7.50;99.90
12957;DHT22;6543;48.836;10.092;2022-12-18T02:11:31;-7.50;99.90
12957;DHT22;6543;48.836;10.092;2022-12-18T02:14:07;-7.50;99.90
12957;DHT22;6543;48.836;10.092;2022-12-18T02:16:46;-7.40;99.90
12957;DHT22;6543;48.836;10.092;2022-12-18T02:22:23;-7.40;99.90
12957;DHT22;6543;48.836;10.092;2022-12-18T02:25:00;-7.40;99.90
12957;DHT22;6543;48.836;10.092;2022-12-18T02:27:32;-7.40;99.90
12957;DHT22;6543;48.836;10.092;2022-12-18T02:30:01;-7.30;99.90
12957;DHT22;6543;48.836;10.092;2022-12-18T02:32:31;-7.30;99.90
12957;DHT22;6543;48.836;10.092;2022-12-18T02:35:02;-7.30;99.90
12957;DHT22;6543;48.836;10.092;2022-12-18T02:37:30;-7.40;99.90
12957;DHT22;6543;48.836;10.092;2022-12-18T02:39:59;-7.30;99.90
12957;DHT22;6543;48.836;10.092;2022-12-18T02:42:28;-7.30;99.90
12957;DHT22;6543;48.836;10.092;2022-12-18T02:44:56;-7.30;99.90
12957;DHT22;6543;48.836;10.092;2022-12-18T02:47:24;-7.40;99.90
12957;DHT22;6543;48.836;10.092;2022-12-18T02:49:59;-7.40;99.90
12957;DHT22;6543;48.836;10.092;2022-12-18T02:52:33;-7.40;99.90
12957;DHT22;6543;48.836;10.092;2022-12-18T02:55:11;-7.50;99.90
12957;DHT22;6543;48.836;10.092;2022-12-18T02:57:44;-7.50;99.90
12957;DHT22;6543;48.836;10.092;2022-12-18T03:00:17;-7.50;99.90
12957;DHT22;6543;48.836;10.092;2022-12-18T03:02:47;-7.50;99.90
12957;DHT22;6543;48.836;10.092;2022-12-18T03:05:17;-7.60;99.90
12957;DHT22;6543;48.836;10.092;2022-12-18T03:07:49;-7.50;99.90
12957;DHT22;6543;48.836;10.092;2022-12-18T03:10:21;-7.50;99.90
12957;DHT22;6543;48.836;10.092;2022-12-18T03:12:52;-7.50;99.90
12957;DHT22;6543;48.836;10.092;2022-12-18T03:15:25;-7.50;99.90
12957;DHT22;6543;48.836;10.092;2022-12-18T03:17:59;-7.40;99.90
12957;DHT22;6543;48.836;10.092;2022-12-18T03:20:29;-7.40;99.90
12957;DHT22;6543;48.836;10.092;2022-12-18T03:23:01;-7.30;99.90
12957;DHT22;6543;48.836;10.092;2022-12-18T03:25:30;-7.20;99.90
12957;DHT22;6543;48.836;10.092;2022-12-18T03:28:01;-7.20;99.90
12957;DHT22;6543;48.836;10.092;2022-12-18T03:30:32;-7.20;99.90
12957;DHT22;6543;48.836;10.092;2022-12-18T03:33:05;-7.10;99.90
12957;DHT22;6543;48.836;10.092;2022-12-18T03:35:37;-7.10;99.90
12957;DHT22;6543;48.836;10.092;2022-12-18T03:38:06;-7.10;99.90
12957;DHT22;6543;48.836;10.092;2022-12-18T03:40:38;-7.10;99.90
12957;DHT22;6543;48.836;10.092;2022-12-18T03:43:10;-7.00;99.90
12957;DHT22;6543;48.836;10.092;2022-12-18T03:45:44;-7.00;99.90
12957;DHT22;6543;48.836;10.092;2022-12-18T03:48:18;-6.90;99.90
12957;DHT22;6543;48.836;10.092;2022-12-18T03:50:49;-7.00;99.90
12957;DHT22;6543;48.836;10.092;2022-12-18T03:53:27;-6.90;99.90
12957;DHT22;6543;48.836;10.092;2022-12-18T03:55:56;-6.80;99.90
12957;DHT22;6543;48.836;10.092;2022-12-18T03:58:25;-6.80;99.90
12957;DHT22;6543;48.836;10.092;2022-12-18T04:00:56;-6.80;99.90
12957;DHT22;6543;48.836;10.092;2022-12-18T04:03:24;-6.80;99.90
12957;DHT22;6543;48.836;10.092;2022-12-18T04:05:53;-6.80;99.90
12957;DHT22;6543;48.836;10.092;2022-12-18T04:08:21;-6.70;99.90
12957;DHT22;6543;48.836;10.092;2022-12-18T04:10:49;-6.70;99.90
12957;DHT22;6543;48.836;10.092;2022-12-18T04:13:22;-6.70;99.90
12957;DHT22;6543;48.836;10.092;2022-12-18T04:15:49;-6.70;99.90
12957;DHT22;6543;48.836;10.092;2022-12-18T04:18:17;-6.70;99.90
12957;DHT22;6543;48.836;10.092;2022-12-18T04:20:44;-6.70;99.90
12957;DHT22;6543;48.836;10.092;2022-12-18T04:23:11;-6.70;99.90
12957;DHT22;6543;48.836;10.092;2022-12-18T04:25:37;-6.70;99.90
12957;DHT22;6543;48.836;10.092;2022-12-18T04:28:04;-6.60;99.90
12957;DHT22;6543;48.836;10.092;2022-12-18T04:30:31;-6.60;99.90
12957;DHT22;6543;48.836;10.092;2022-12-18T04:32:58;-6.60;99.90
12957;DHT22;6543;48.836;10.092;2022-12-18T04:35:26;-6.60;99.90
12957;DHT22;6543;48.836;10.092;2022-12-18T04:37:53;-6.60;99.90
12957;DHT22;6543;48.836;10.092;2022-12-18T04:40:20;-6.60;99.90
12957;DHT22;6543;48.836;10.092;2022-12-18T04:42:47;-6.60;99.90
12957;DHT22;6543;48.836;10.092;2022-12-18T04:45:13;-6.60;99.90
12957;DHT22;6543;48.836;10.092;2022-12-18T04:47:40;-6.60;99.90
12957;DHT22;6543;48.836;10.092;2022-12-18T04:50:07;-6.60;99.90
12957;DHT22;6543;48.836;10.092;2022-12-18T04:52:36;-6.50;99.90
12957;DHT22;6543;48.836;10.092;2022-12-18T04:55:03;-6.50;99.90
12957;DHT22;6543;48.836;10.092;2022-12-18T04:57:30;-6.50;99.90
12957;DHT22;6543;48.836;10.092;2022-12-18T04:59:56;-6.40;99.90
12957;DHT22;6543;48.836;10.092;2022-12-18T05:02:23;-6.40;99.90
12957;DHT22;6543;48.836;10.092;2022-12-18T05:04:50;-6.40;99.90
12957;DHT22;6543;48.836;10.092;2022-12-18T05:07:17;-6.40;99.90
12957;DHT22;6543;48.836;10.092;2022-12-18T05:09:45;-6.40;99.90
12957;DHT22;6543;48.836;10.092;2022-12-18T05:12:12;-6.30;99.90
12957;DHT22;6543;48.836;10.092;2022-12-18T05:14:38;-6.30;99.90
12957;DHT22;6543;48.836;10.092;2022-12-18T05:17:05;-6.30;99.90
12957;DHT22;6543;48.836;10.092;2022-12-18T05:19:32;-6.30;99.90
12957;DHT22;6543;48.836;10.092;2022-12-18T05:24:27;-6.30;99.90
12957;DHT22;6543;48.836;10.092;2022-12-18T05:26:55;-6.30;99.90
12957;DHT22;6543;48.836;10.092;2022-12-18T05:29:22;-6.30;99.90
12957;DHT22;6543;48.836;10.092;2022-12-18T05:31:48;-6.20;99.90
12957;DHT22;6543;48.836;10.092;2022-12-18T05:34:15;-6.30;99.90
12957;DHT22;6543;48.836;10.092;2022-12-18T05:36:42;-6.30;99.90
12957;DHT22;6543;48.836;10.092;2022-12-18T05:39:09;-6.30;99.90
12957;DHT22;6543;48.836;10.092;2022-12-18T05:41:36;-6.30;99.90
12957;DHT22;6543;48.836;10.092;2022-12-18T05:44:04;-6.30;99.90
12957;DHT22;6543;48.836;10.092;2022-12-18T05:46:31;-6.30;99.90
12957;DHT22;6543;48.836;10.092;2022-12-18T05:48:59;-6.30;99.90
12957;DHT22;6543;48.836;10.092;2022-12-18T05:51:27;-6.40;99.90
12957;DHT22;6543;48.836;10.092;2022-12-18T05:53:54;-6.30;99.90
12957;DHT22;6543;48.836;10.092;2022-12-18T05:56:22;-6.30;99.90
12957;DHT22;6543;48.836;10.092;2022-12-18T05:58:51;-6.30;99.90
12957;DHT22;6543;48.836;10.092;2022-12-18T06:01:22;-6.30;99.90
12957;DHT22;6543;48.836;10.092;2022-12-18T06:03:49;-6.20;99.90
12957;DHT22;6543;48.836;10.092;2022-12-18T06:06:17;-6.20;99.90
12957;DHT22;6543;48.836;10.092;2022-12-18T06:08:45;-6.20;99.90
12957;DHT22;6543;48.836;10.092;2022-12-18T06:11:12;-6.30;99.90
12957;DHT22;6543;48.836;10.092;2022-12-18T06:13:39;-6.30;99.90
12957;DHT22;6543;48.836;10.092;2022-12-18T06:16:06;-6.30;99.90
12957;DHT22;6543;48.836;10.092;2022-12-18T06:18:35;-6.30;99.90
12957;DHT22;6543;48.836;10.092;2022-12-18T06:21:05;-6.30;99.90
12957;DHT22;6543;48.836;10.092;2022-12-18T06:23:32;-6.30;99.90
12957;DHT22;6543;48.836;10.092;2022-12-18T06:26:02;-6.30;99.90
12957;DHT22;6543;48.836;10.092;2022-12-18T06:28:29;-6.40;99.90
12957;DHT22;6543;48.836;10.092;2022-12-18T06:30:56;-6.40;99.90
12957;DHT22;6543;48.836;10.092;2022-12-18T06:33:26;-6.40;99.90
12957;DHT22;6543;48.836;10.092;2022-12-18T06:35:54;-6.40;99.90
12957;DHT22;6543;48.836;10.092;2022-12-18T06:38:21;-6.40;99.90
12957;DHT22;6543;48.836;10.092;2022-12-18T06:40:48;-6.40;99.90
12957;DHT22;6543;48.836;10.092;2022-12-18T06:43:14;-6.40;99.90
12957;DHT22;6543;48.836;10.092;2022-12-18T06:45:41;-6.40;99.90
12957;DHT22;6543;48.836;10.092;2022-12-18T06:48:08;-6.30;99.90
12957;DHT22;6543;48.836;10.092;2022-12-18T06:50:35;-6.30;99.90
12957;DHT22;6543;48.836;10.092;2022-12-18T06:53:03;-6.30;99.90
12957;DHT22;6543;48.836;10.092;2022-12-18T06:55:30;-6.30;99.90
12957;DHT22;6543;48.836;10.092;2022-12-18T06:57:57;-6.30;99.90
12957;DHT22;6543;48.836;10.092;2022-12-18T07:00:23;-6.30;99.90
12957;DHT22;6543;48.836;10.092;2022-12-18T07:02:50;-6.20;99.90
12957;DHT22;6543;48.836;10.092;2022-12-18T07:05:17;-6.20;99.90
12957;DHT22;6543;48.836;10.092;2022-12-18T07:07:44;-6.20;99.90
12957;DHT22;6543;48.836;10.092;2022-12-18T07:10:12;-6.10;99.90
12957;DHT22;6543;48.836;10.092;2022-12-18T07:12:39;-6.20;99.90
12957;DHT22;6543;48.836;10.092;2022-12-18T07:15:07;-6.10;99.90
12957;DHT22;6543;48.836;10.092;2022-12-18T07:17:34;-6.10;99.90
12957;DHT22;6543;48.836;10.092;2022-12-18T07:20:01;-6.10;99.90
12957;DHT22;6543;48.836;10.092;2022-12-18T07:22:28;-6.00;99.90
12957;DHT22;6543;48.836;10.092;2022-12-18T07:24:55;-6.00;99.90
12957;DHT22;6543;48.836;10.092;2022-12-18T07:27:23;-6.00;99.90
12957;DHT22;6543;48.836;10.092;2022-12-18T07:29:50;-6.00;99.90
12957;DHT22;6543;48.836;10.092;2022-12-18T07:32:16;-6.00;99.90
12957;DHT22;6543;48.836;10.092;2022-12-18T07:34:43;-6.00;99.90
12957;DHT22;6543;48.836;10.092;2022-12-18T07:37:10;-5.90;99.90
12957;DHT22;6543;48.836;10.092;2022-12-18T07:39:37;-5.90;99.90
12957;DHT22;6543;48.836;10.092;2022-12-18T07:42:04;-5.90;99.90
12957;DHT22;6543;48.836;10.092;2022-12-18T07:44:49;-5.90;99.90
12957;DHT22;6543;48.836;10.092;2022-12-18T07:47:16;-5.80;99.90
12957;DHT22;6543;48.836;10.092;2022-12-18T07:49:43;-5.80;99.90
12957;DHT22;6543;48.836;10.092;2022-12-18T07:52:10;-5.70;99.90
12957;DHT22;6543;48.836;10.092;2022-12-18T07:54:37;-5.80;99.90
12957;DHT22;6543;48.836;10.092;2022-12-18T07:57:05;-5.70;99.90
12957;DHT22;6543;48.836;10.092;2022-12-18T07:59:32;-5.70;99.90
12957;DHT22;6543;48.836;10.092;2022-12-18T08:02:00;-5.70;99.90
12957;DHT22;6543;48.836;10.092;2022-12-18T08:04:27;-5.70;99.90
12957;DHT22;6543;48.836;10.092;2022-12-18T08:06:54;-5.70;99.90
12957;DHT22;6543;48.836;10.092;2022-12-18T08:09:21;-5.70;99.90
12957;DHT22;6543;48.836;10.092;2022-12-18T08:11:48;-5.70;99.90
12957;DHT22;6543;48.836;10.092;2022-12-18T08:14:14;-5.60;99.90
12957;DHT22;6543;48.836;10.092;2022-12-18T08:16:41;-5.60;99.90
12957;DHT22;6543;48.836;10.092;2022-12-18T08:19:11;-5.60;99.90
12957;DHT22;6543;48.836;10.092;2022-12-18T08:21:38;-5.50;99.90
12957;DHT22;6543;48.836;10.092;2022-12-18T08:26:37;-5.50;99.90
12957;DHT22;6543;48.836;10.092;2022-12-18T08:29:04;-5.50;99.90
12957;DHT22;6543;48.836;10.092;2022-12-18T08:31:31;-5.50;99.90
12957;DHT22;6543;48.836;10.092;2022-12-18T08:33:58;-5.50;99.90
12957;DHT22;6543;48.836;10.092;2022-12-18T08:36:26;-5.50;99.90
12957;DHT22;6543;48.836;10.092;2022-12-18T08:38:53;-5.40;99.90
12957;DHT22;6543;48.836;10.092;2022-12-18T08:41:20;-5.40;99.90
12957;DHT22;6543;48.836;10.092;2022-12-18T08:43:47;-5.30;99.90
12957;DHT22;6543;48.836;10.092;2022-12-18T08:46:34;-5.40;99.90
12957;DHT22;6543;48.836;10.092;2022-12-18T08:49:02;-5.50;99.90
12957;DHT22;6543;48.836;10.092;2022-12-18T08:51:31;-5.40;99.90
12957;DHT22;6543;48.836;10.092;2022-12-18T08:53:58;-5.40;99.90
12957;DHT22;6543;48.836;10.092;2022-12-18T08:56:25;-5.30;99.90
12957;DHT22;6543;48.836;10.092;2022-12-18T08:58:52;-5.30;99.90
12957;DHT22;6543;48.836;10.092;2022-12-18T09:01:20;-5.30;99.90
12957;DHT22;6543;48.836;10.092;2022-12-18T09:03:46;-5.30;99.90
12957;DHT22;6543;48.836;10.092;2022-12-18T09:06:14;-5.20;99.90
12957;DHT22;6543;48.836;10.092;2022-12-18T09:08:43;-4.20;99.90
12957;DHT22;6543;48.836;10.092;2022-12-18T09:11:15;-5.30;99.90
12957;DHT22;6543;48.836;10.092;2022-12-18T09:13:45;-5.20;99.90
12957;DHT22;6543;48.836;10.092;2022-12-18T09:16:12;-5.20;99.90
12957;DHT22;6543;48.836;10.092;2022-12-18T09:18:38;-5.20;99.90
12957;DHT22;6543;48.836;10.092;2022-12-18T09:21:10;-5.20;99.90
12957;DHT22;6543;48.836;10.092;2022-12-18T09:23:37;-5.20;99.90
12957;DHT22;6543;48.836;10.092;2022-12-18T09:26:05;-5.10;99.90
12957;DHT22;6543;48.836;10.092;2022-12-18T09:28:32;-5.10;99.90
12957;DHT22;6543;48.836;10.092;2022-12-18T09:31:03;-5.10;99.90
12957;DHT22;6543;48.836;10.092;2022-12-18T09:33:29;-5.10;99.90
12957;DHT22;6543;48.836;10.092;2022-12-18T09:35:56;-5.10;99.90
12957;DHT22;6543;48.836;10.092;2022-12-18T09:38:23;-5.00;99.90
12957;DHT22;6543;48.836;10.092;2022-12-18T09:40:53;-5.00;99.90
12957;DHT22;6543;48.836;10.092;2022-12-18T09:43:26;-5.00;99.90
12957;DHT22;6543;48.836;10.092;2022-12-18T09:45:58;-5.00;99.90
12957;DHT22;6543;48.836;10.092;2022-12-18T09:48:29;-5.00;99.90
12957;DHT22;6543;48.836;10.092;2022-12-18T09:51:02;-5.00;99.90
12957;DHT22;6543;48.836;10.092;2022-12-18T09:53:32;-5.00;99.90
12957;DHT22;6543;48.836;10.092;2022-12-18T09:56:02;-5.00;99.90
12957;DHT22;6543;48.836;10.092;2022-12-18T09:58:34;-4.90;99.90
12957;DHT22;6543;48.836;10.092;2022-12-18T10:01:09;-4.90;99.90
12957;DHT22;6543;48.836;10.092;2022-12-18T10:03:36;-4.90;99.90
12957;DHT22;6543;48.836;10.092;2022-12-18T10:06:08;-4.80;99.90
12957;DHT22;6543;48.836;10.092;2022-12-18T10:08:43;-4.80;99.90
12957;DHT22;6543;48.836;10.092;2022-12-18T10:11:27;-4.80;99.90
12957;DHT22;6543;48.836;10.092;2022-12-18T10:14:00;-4.70;99.90
12957;DHT22;6543;48.836;10.092;2022-12-18T10:16:37;-4.50;99.90
12957;DHT22;6543;48.836;10.092;2022-12-18T10:19:17;-4.50;99.90
12957;DHT22;6543;48.836;10.092;2022-12-18T10:21:51;-4.50;99.90
12957;DHT22;6543;48.836;10.092;2022-12-18T10:24:28;-4.40;99.90
12957;DHT22;6543;48.836;10.092;2022-12-18T10:27:04;-4.40;99.90
12957;DHT22;6543;48.836;10.092;2022-12-18T10:29:36;-4.30;99.90
12957;DHT22;6543;48.836;10.092;2022-12-18T10:32:03;-4.40;99.90
12957;DHT22;6543;48.836;10.092;2022-12-18T10:34:31;-4.40;99.90
12957;DHT22;6543;48.836;10.092;2022-12-18T10:37:00;-4.20;99.90
12957;DHT22;6543;48.836;10.092;2022-12-18T10:39:27;-4.30;99.90
12957;DHT22;6543;48.836;10.092;2022-12-18T10:42:10;-4.40;99.90
12957;DHT22;6543;48.836;10.092;2022-12-18T10:44:40;-4.40;99.90
12957;DHT22;6543;48.836;10.092;2022-12-18T10:47:12;-4.30;99.90
12957;DHT22;6543;48.836;10.092;2022-12-18T10:49:46;-4.30;99.90
12957;DHT22;6543;48.836;10.092;2022-12-18T10:52:17;-4.20;99.90
12957;DHT22;6543;48.836;10.092;2022-12-18T10:54:49;-4.20;99.90
12957;DHT22;6543;48.836;10.092;2022-12-18T10:57:29;-4.30;99.90
12957;DHT22;6543;48.836;10.092;2022-12-18T11:00:22;-4.30;99.90
12957;DHT22;6543;48.836;10.092;2022-12-18T11:02:45;-4.40;99.90
12957;DHT22;6543;48.836;10.092;2022-12-18T11:05:24;-4.20;99.90
12957;DHT22;6543;48.836;10.092;2022-12-18T11:07:51;-4.20;99.90
12957;DHT22;6543;48.836;10.092;2022-12-18T11:10:21;-4.30;99.90
12957;DHT22;6543;48.836;10.092;2022-12-18T11:12:48;-4.10;99.90
12957;DHT22;6543;48.836;10.092;2022-12-18T11:15:20;-4.10;99.90
12957;DHT22;6543;48.836;10.092;2022-12-18T11:17:49;-4.10;99.90
12957;DHT22;6543;48.836;10.092;2022-12-18T11:20:25;-4.10;99.90
12957;DHT22;6543;48.836;10.092;2022-12-18T11:22:56;-4.00;99.90
12957;DHT22;6543;48.836;10.092;2022-12-18T11:25:24;-4.00;99.90
12957;DHT22;6543;48.836;10.092;2022-12-18T11:28:00;-4.00;99.90
12957;DHT22;6543;48.836;10.092;2022-12-18T11:30:30;-4.00;99.90
12957;DHT22;6543;48.836;10.092;2022-12-18T11:33:03;-4.00;99.90
12957;DHT22;6543;48.836;10.092;2022-12-18T11:35:49;-3.90;99.90
12957;DHT22;6543;48.836;10.092;2022-12-18T11:38:21;-3.70;99.90
12957;DHT22;6543;48.836;10.092;2022-12-18T11:40:54;-3.60;99.90
12957;DHT22;6543;48.836;10.092;2022-12-18T11:43:26;-3.50;99.90
12957;DHT22;6543;48.836;10.092;2022-12-18T11:45:59;-3.70;99.90
12957;DHT22;6543;48.836;10.092;2022-12-18T11:48:32;-3.70;99.90
12957;DHT22;6543;48.836;10.092;2022-12-18T11:51:01;-3.60;99.90
12957;DHT22;6543;48.836;10.092;2022-12-18T11:53:30;-3.60;99.90
12957;DHT22;6543;48.836;10.092;2022-12-18T11:56:04;-3.60;99.90
12957;DHT22;6543;48.836;10.092;2022-12-18T11:58:44;-3.60;99.90
12957;DHT22;6543;48.836;10.092;2022-12-18T12:01:24;-3.60;99.90
12957;DHT22;6543;48.836;10.092;2022-12-18T12:07:00;-3.50;99.90
12957;DHT22;6543;48.836;10.092;2022-12-18T12:09:35;-3.50;99.90
12957;DHT22;6543;48.836;10.092;2022-12-18T12:12:23;-3.60;99.90
12957;DHT22;6543;48.836;10.092;2022-12-18T12:15:00;-3.50;99.90
12957;DHT22;6543;48.836;10.092;2022-12-18T12:17:35;-3.40;99.90
12957;DHT22;6543;48.836;10.092;2022-12-18T12:20:11;-3.50;99.90
12957;DHT22;6543;48.836;10.092;2022-12-18T12:22:43;-3.50;99.90
12957;DHT22;6543;48.836;10.092;2022-12-18T12:25:21;-3.40;99.90
12957;DHT22;6543;48.836;10.092;2022-12-18T12:28:01;-3.50;99.90
12957;DHT22;6543;48.836;10.092;2022-12-18T12:30:35;-3.50;99.90
12957;DHT22;6543;48.836;10.092;2022-12-18T12:33:16;-3.40;99.90
12957;DHT22;6543;48.836;10.092;2022-12-18T12:35:55;-3.40;99.90
12957;DHT22;6543;48.836;10.092;2022-12-18T12:38:30;-3.40;99.90
12957;DHT22;6543;48.836;10.092;2022-12-18T12:41:00;-3.40;99.90
12957;DHT22;6543;48.836;10.092;2022-12-18T12:43:34;-3.30;99.90
12957;DHT22;6543;48.836;10.092;2022-12-18T12:46:04;-3.30;99.90
12957;DHT22;6543;48.836;10.092;2022-12-18T12:48:37;-3.30;99.90
12957;DHT22;6543;48.836;10.092;2022-12-18T12:51:10;-3.30;99.90
12957;DHT22;6543;48.836;10.092;2022-12-18T12:53:38;-3.40;99.90
12957;DHT22;6543;48.836;10.092;2022-12-18T12:56:08;-3.50;99.90
12957;DHT22;6543;48.836;10.092;2022-12-18T12:58:43;-3.50;99.90
12957;DHT22;6543;48.836;10.092;2022-12-18T13:01:20;-3.60;99.90
12957;DHT22;6543;48.836;10.092;2022-12-18T13:03:59;-3.50;99.90
12957;DHT22;6543;48.836;10.092;2022-12-18T13:06:39;-3.60;99.90
12957;DHT22;6543;48.836;10.092;2022-12-18T13:09:07;-3.60;99.90
12957;DHT22;6543;48.836;10.092;2022-12-18T13:11:38;-3.50;99.90
12957;DHT22;6543;48.836;10.092;2022-12-18T13:14:27;-3.60;99.90
12957;DHT22;6543;48.836;10.092;2022-12-18T13:17:16;-3.60;99.90
12957;DHT22;6543;48.836;10.092;2022-12-18T13:19:47;-3.60;99.90
12957;DHT22;6543;48.836;10.092;2022-12-18T13:22:22;-3.50;99.90
12957;DHT22;6543;48.836;10.092;2022-12-18T13:24:50;-3.50;99.90
12957;DHT22;6543;48.836;10.092;2022-12-18T13:27:46;-3.40;99.90
12957;DHT22;6543;48.836;10.092;2022-12-18T13:30:43;-3.50;99.90
12957;DHT22;6543;48.836;10.092;2022-12-18T13:33:38;-3.40;99.90
12957;DHT22;6543;48.836;10.092;2022-12-18T13:36:32;-3.50;99.90
12957;DHT22;6543;48.836;10.092;2022-12-18T13:39:31;-3.40;99.90
12957;DHT22;6543;48.836;10.092;2022-12-18T13:45:59;-3.50;99.90
12957;DHT22;6543;48.836;10.092;2022-12-18T13:48:27;-3.50;99.90
12957;DHT22;6543;48.836;10.092;2022-12-18T13:50:59;-3.60;99.90
12957;DHT22;6543;48.836;10.092;2022-12-18T13:53:33;-3.60;99.90
12957;DHT22;6543;48.836;10.092;2022-12-18T13:56:01;-3.50;99.90
12957;DHT22;6543;48.836;10.092;2022-12-18T13:58:28;-3.70;99.90
12957;DHT22;6543;48.836;10.092;2022-12-18T14:00:55;-3.60;99.90
12957;DHT22;6543;48.836;10.092;2022-12-18T14:03:24;-3.60;99.90
12957;DHT22;6543;48.836;10.092;2022-12-18T14:05:55;-3.50;99.90
12957;DHT22;6543;48.836;10.092;2022-12-18T14:08:23;-3.60;99.90
12957;DHT22;6543;48.836;10.092;2022-12-18T14:10:54;-3.60;99.90
12957;DHT22;6543;48.836;10.092;2022-12-18T14:13:26;-3.70;99.90
12957;DHT22;6543;48.836;10.092;2022-12-18T14:15:55;-3.70;99.90
12957;DHT22;6543;48.836;10.092;2022-12-18T14:18:24;-3.70;99.90
12957;DHT22;6543;48.836;10.092;2022-12-18T14:20:53;-3.80;99.90
12957;DHT22;6543;48.836;10.092;2022-12-18T14:23:29;-3.80;99.90
12957;DHT22;6543;48.836;10.092;2022-12-18T14:25:57;-3.80;99.90
12957;DHT22;6543;48.836;10.092;2022-12-18T14:28:25;-3.90;99.90
12957;DHT22;6543;48.836;10.092;2022-12-18T14:30:52;-3.90;99.90
12957;DHT22;6543;48.836;10.092;2022-12-18T14:33:21;-3.80;99.90
12957;DHT22;6543;48.836;10.092;2022-12-18T14:35:54;-3.80;99.90
12957;DHT22;6543;48.836;10.092;2022-12-18T14:38:24;-3.80;99.90
12957;DHT22;6543;48.836;10.092;2022-12-18T14:41:00;-3.90;99.90
12957;DHT22;6543;48.836;10.092;2022-12-18T14:43:29;-3.90;99.90
12957;DHT22;6543;48.836;10.092;2022-12-18T14:45:56;-3.90;99.90
12957;DHT22;6543;48.836;10.092;2022-12-18T14:48:34;-3.90;99.90
12957;DHT22;6543;48.836;10.092;2022-12-18T14:51:03;-3.90;99.90
12957;DHT22;6543;48.836;10.092;2022-12-18T14:53:38;-3.90;99.90
12957;DHT22;6543;48.836;10.092;2022-12-18T14:56:22;-4.00;99.90
12957;DHT22;6543;48.836;10.092;2022-12-18T14:58:52;-3.90;99.90
12957;DHT22;6543;48.836;10.092;2022-12-18T15:01:23;-3.90;99.90
12957;DHT22;6543;48.836;10.092;2022-12-18T15:03:51;-4.00;99.90
12957;DHT22;6543;48.836;10.092;2022-12-18T15:06:26;-3.90;99.90
12957;DHT22;6543;48.836;10.092;2022-12-18T15:08:53;-3.90;99.90
12957;DHT22;6543;48.836;10.092;2022-12-18T15:14:33;-4.00;99.90
12957;DHT22;6543;48.836;10.092;2022-12-18T15:17:03;-4.10;99.90
12957;DHT22;6543;48.836;10.092;2022-12-18T15:19:42;-4.00;99.90
12957;DHT22;6543;48.836;10.092;2022-12-18T15:22:25;-4.10;99.90
12957;DHT22;6543;48.836;10.092;2022-12-18T15:24:53;-4.10;99.90
12957;DHT22;6543;48.836;10.092;2022-12-18T15:27:31;-4.10;99.90
12957;DHT22;6543;48.836;10.092;2022-12-18T15:32:44;-4.10;99.90
12957;DHT22;6543;48.836;10.092;2022-12-18T15:35:15;-4.10;99.90
12957;DHT22;6543;48.836;10.092;2022-12-18T15:37:43;-4.20;99.90
12957;DHT22;6543;48.836;10.092;2022-12-18T15:40:12;-4.20;99.90
12957;DHT22;6543;48.836;10.092;2022-12-18T15:42:41;-4.30;99.90
12957;DHT22;6543;48.836;10.092;2022-12-18T15:45:30;-4.30;99.90
12957;DHT22;6543;48.836;10.092;2022-12-18T15:47:57;-4.30;99.90
12957;DHT22;6543;48.836;10.092;2022-12-18T15:50:24;-4.30;99.90
12957;DHT22;6543;48.836;10.092;2022-12-18T15:52:52;-4.20;99.90
12957;DHT22;6543;48.836;10.092;2022-12-18T15:55:21;-4.30;99.90
12957;DHT22;6543;48.836;10.092;2022-12-18T15:58:09;-4.20;99.90
12957;DHT22;6543;48.836;10.092;2022-12-18T16:00:37;-4.20;99.90
12957;DHT22;6543;48.836;10.092;2022-12-18T16:03:05;-4.20;99.90
12957;DHT22;6543;48.836;10.092;2022-12-18T16:05:32;-4.30;99.90
12957;DHT22;6543;48.836;10.092;2022-12-18T16:07:59;-4.20;99.90
12957;DHT22;6543;48.836;10.092;2022-12-18T16:10:26;-4.20;99.90
12957;DHT22;6543;48.836;10.092;2022-12-18T16:12:53;-4.20;99.90
12957;DHT22;6543;48.836;10.092;2022-12-18T16:15:21;-4.20;99.90